createdAt,value
2023-02-19T00:00:32.088Z,8.20
2023-02-19T00:02:58.566Z,8.27
2023-02-19T00:05:24.927Z,8.39
2023-02-19T00:07:51.302Z,8.71
2023-02-19T00:10:17.688Z,8.51
2023-02-19T00:12:44.126Z,8.31
2023-02-19T00:15:10.477Z,8.84
2023-02-19T00:17:36.876Z,8.96
2023-02-19T00:20:03.310Z,8.92
2023-02-19T00:22:29.653Z,8.66
2023-02-19T00:24:56.033Z,8.72
2023-02-19T00:27:22.412Z,8.61
2023-02-19T00:29:48.779Z,7.24
2023-02-19T00:32:15.198Z,8.08
2023-02-19T00:34:41.604Z,8.21
2023-02-19T00:37:07.952Z,8.44
2023-02-19T00:39:34.327Z,7.75
2023-02-19T00:42:00.677Z,7.55
2023-02-19T00:44:27.076Z,7.70
2023-02-19T00:46:53.501Z,7.86
2023-02-19T00:49:19.889Z,7.84
2023-02-19T00:51:46.255Z,7.85
2023-02-19T00:54:12.618Z,7.79
2023-02-19T00:56:39.087Z,7.42
2023-02-19T00:59:05.458Z,7.62
2023-02-19T01:01:31.973Z,7.94
2023-02-19T01:03:58.387Z,7.72
2023-02-19T01:06:24.810Z,7.31
2023-02-19T01:08:51.194Z,7.18
2023-02-19T01:11:17.586Z,7.23
2023-02-19T01:13:43.975Z,7.08
2023-02-19T01:16:10.345Z,7.40
2023-02-19T01:18:36.772Z,7.42
2023-02-19T01:21:03.130Z,7.26
2023-02-19T01:23:29.486Z,7.76
2023-02-19T01:25:55.885Z,8.04
2023-02-19T01:28:22.231Z,8.46
2023-02-19T01:30:48.626Z,8.15
2023-02-19T01:33:14.978Z,8.40
2023-02-19T01:35:41.348Z,8.54
2023-02-19T01:38:07.813Z,8.80
2023-02-19T01:40:34.187Z,8.68
2023-02-19T01:43:00.636Z,8.77
2023-02-19T01:45:27.010Z,8.76
2023-02-19T01:47:53.392Z,9.31
2023-02-19T01:50:19.756Z,8.95
2023-02-19T01:52:46.136Z,8.97
2023-02-19T01:55:12.501Z,8.96
2023-02-19T01:57:38.896Z,8.78
2023-02-19T02:00:05.266Z,8.92
2023-02-19T02:02:31.634Z,9.51
2023-02-19T02:04:57.996Z,9.43
2023-02-19T02:07:24.389Z,9.54
2023-02-19T02:09:50.772Z,8.68
2023-02-19T02:12:17.149Z,8.89
2023-02-19T02:14:43.504Z,9.09
2023-02-19T02:17:09.958Z,9.17
2023-02-19T02:19:36.329Z,8.92
2023-02-19T02:22:02.693Z,9.02
2023-02-19T02:24:29.061Z,8.92
2023-02-19T02:26:55.428Z,9.01
2023-02-19T02:29:21.789Z,8.93
2023-02-19T02:31:48.324Z,9.44
2023-02-19T02:34:14.737Z,9.05
2023-02-19T02:36:41.145Z,9.25
2023-02-19T02:39:07.596Z,9.46
2023-02-19T02:41:33.996Z,9.61
2023-02-19T02:44:00.351Z,9.50
2023-02-19T02:46:26.725Z,9.36
2023-02-19T02:48:53.101Z,9.37
2023-02-19T02:51:19.509Z,9.76
2023-02-19T02:53:45.881Z,9.57
2023-02-19T02:56:12.267Z,9.92
2023-02-19T02:58:38.640Z,10.11
2023-02-19T03:01:05.080Z,10.24
2023-02-19T03:03:31.460Z,10.42
2023-02-19T03:05:57.815Z,10.25
2023-02-19T03:08:24.177Z,10.19
2023-02-19T03:10:50.911Z,10.44
2023-02-19T03:13:17.290Z,10.53
2023-02-19T03:15:43.669Z,10.33
2023-02-19T03:18:10.038Z,10.51
2023-02-19T03:20:36.411Z,10.44
2023-02-19T03:23:02.793Z,10.47
2023-02-19T03:25:29.157Z,10.98
2023-02-19T03:27:55.538Z,10.55
2023-02-19T03:30:21.950Z,9.25
2023-02-19T03:32:48.328Z,8.22
2023-02-19T03:35:14.717Z,8.57
2023-02-19T03:37:41.144Z,8.65
2023-02-19T03:40:07.522Z,8.29
2023-02-19T03:42:33.982Z,8.49
2023-02-19T03:45:00.376Z,8.75
2023-02-19T03:47:26.760Z,8.86
2023-02-19T03:49:53.133Z,9.34
2023-02-19T03:52:19.534Z,9.30
2023-02-19T03:54:45.897Z,9.23
2023-02-19T03:57:12.260Z,9.00
2023-02-19T03:59:38.627Z,8.77
2023-02-19T04:02:05.013Z,8.91
2023-02-19T04:04:31.410Z,9.20
2023-02-19T04:06:57.834Z,8.81
2023-02-19T04:09:24.196Z,8.70
2023-02-19T04:11:50.561Z,8.43
2023-02-19T04:14:16.943Z,8.28
2023-02-19T04:16:43.346Z,7.57
2023-02-19T04:19:09.820Z,7.19
2023-02-19T04:21:36.193Z,6.76
2023-02-19T04:24:02.630Z,6.69
2023-02-19T04:26:29.021Z,6.85
2023-02-19T04:28:55.508Z,6.95
2023-02-19T04:31:21.924Z,6.85
2023-02-19T04:33:48.330Z,6.43
2023-02-19T04:36:14.717Z,6.70
2023-02-19T04:38:41.117Z,6.22
2023-02-19T04:41:07.654Z,6.27
2023-02-19T04:43:34.096Z,6.16
2023-02-19T04:46:00.505Z,5.69
2023-02-19T04:48:26.886Z,5.59
2023-02-19T04:50:53.269Z,4.86
2023-02-19T04:53:19.630Z,5.39
2023-02-19T04:55:46.088Z,5.21
2023-02-19T04:58:12.538Z,5.27
2023-02-19T05:00:39.937Z,5.14
2023-02-19T05:03:06.296Z,4.90
2023-02-19T05:05:32.649Z,5.04
2023-02-19T05:07:59.058Z,5.71
2023-02-19T05:10:28.385Z,5.27
2023-02-19T05:12:56.831Z,5.66
2023-02-19T05:15:24.172Z,5.47
2023-02-19T05:17:50.566Z,5.29
2023-02-19T05:20:16.922Z,5.59
2023-02-19T05:22:43.311Z,5.77
2023-02-19T05:25:09.736Z,5.34
2023-02-19T05:27:36.127Z,5.68
2023-02-19T05:30:02.592Z,6.12
2023-02-19T05:32:29.030Z,6.19
2023-02-19T05:34:55.384Z,6.51
2023-02-19T05:37:21.763Z,6.41
2023-02-19T05:39:48.179Z,6.56
2023-02-19T05:42:14.556Z,6.43
2023-02-19T05:44:40.932Z,6.91
2023-02-19T05:47:07.304Z,7.06
2023-02-19T05:49:33.714Z,6.79
2023-02-19T05:52:00.210Z,6.64
2023-02-19T05:54:26.707Z,6.88
2023-02-19T05:56:53.117Z,7.08
2023-02-19T05:59:19.476Z,6.87
2023-02-19T06:01:45.840Z,6.97
2023-02-19T06:04:12.251Z,6.81
2023-02-19T06:06:38.704Z,7.15
2023-02-19T06:09:05.086Z,7.58
2023-02-19T06:11:31.499Z,7.02
2023-02-19T06:13:57.921Z,7.29
2023-02-19T06:16:24.391Z,7.25
2023-02-19T06:18:50.818Z,7.21
2023-02-19T06:21:17.261Z,6.84
2023-02-19T06:23:43.645Z,7.30
2023-02-19T06:26:10.008Z,7.07
2023-02-19T06:28:36.386Z,7.00
2023-02-19T06:31:02.795Z,6.78
2023-02-19T06:33:29.252Z,6.73
2023-02-19T06:35:55.634Z,6.66
2023-02-19T06:38:22.009Z,6.71
2023-02-19T06:40:48.432Z,7.17
2023-02-19T06:43:14.778Z,7.03
2023-02-19T06:45:41.146Z,6.77
2023-02-19T06:48:07.526Z,6.81
2023-02-19T06:50:33.873Z,6.98
2023-02-19T06:53:00.261Z,6.72
2023-02-19T06:55:26.636Z,6.99
2023-02-19T06:57:53.039Z,6.91
2023-02-19T07:00:19.426Z,6.97
2023-02-19T07:02:45.808Z,6.82
2023-02-19T07:05:12.190Z,7.04
2023-02-19T07:07:38.561Z,7.00
2023-02-19T07:10:04.929Z,6.95
2023-02-19T07:12:31.281Z,6.96
2023-02-19T07:14:57.739Z,7.28
2023-02-19T07:17:24.101Z,6.59
2023-02-19T07:19:50.464Z,6.93
2023-02-19T07:22:16.838Z,7.23
2023-02-19T07:24:43.213Z,7.04
2023-02-19T07:27:09.584Z,6.77
2023-02-19T07:29:35.947Z,6.70
2023-02-19T07:32:02.442Z,6.73
2023-02-19T07:34:28.813Z,6.82
2023-02-19T07:36:55.168Z,6.54
2023-02-19T07:39:21.567Z,6.30
2023-02-19T07:41:47.937Z,6.01
2023-02-19T07:44:14.333Z,6.87
2023-02-19T07:46:40.714Z,6.72
2023-02-19T07:49:07.084Z,6.54
2023-02-19T07:51:33.469Z,6.72
2023-02-19T07:53:59.820Z,6.34
2023-02-19T07:56:26.243Z,6.33
2023-02-19T07:58:52.650Z,5.73
2023-02-19T08:01:19.249Z,5.73
2023-02-19T08:03:45.673Z,6.10
2023-02-19T08:06:12.051Z,6.41
2023-02-19T08:08:38.430Z,7.25
2023-02-19T08:11:04.796Z,6.77
2023-02-19T08:13:31.174Z,5.91
2023-02-19T08:16:07.521Z,6.25
2023-02-19T08:18:41.082Z,5.82
2023-02-19T08:21:07.478Z,5.53
2023-02-19T08:23:33.883Z,5.68
2023-02-19T08:26:00.308Z,5.70
2023-02-19T08:28:26.687Z,5.97
2023-02-19T08:30:53.130Z,5.92
2023-02-19T08:33:19.521Z,6.05
2023-02-19T08:35:45.877Z,6.17
2023-02-19T08:38:12.320Z,6.50
2023-02-19T08:40:38.725Z,6.52
2023-02-19T08:43:05.092Z,6.46
2023-02-19T08:45:31.498Z,6.83
2023-02-19T08:47:57.891Z,7.13
2023-02-19T08:50:24.382Z,7.74
2023-02-19T08:52:50.763Z,8.05
2023-02-19T08:55:17.135Z,8.25
2023-02-19T08:57:43.701Z,7.99
2023-02-19T09:00:10.078Z,8.07
2023-02-19T09:02:36.460Z,8.31
2023-02-19T09:05:02.926Z,7.90
2023-02-19T09:07:29.363Z,7.76
2023-02-19T09:09:55.736Z,8.06
2023-02-19T09:12:22.119Z,8.03
2023-02-19T09:14:48.515Z,7.85
2023-02-19T09:17:14.912Z,8.38
2023-02-19T09:19:41.303Z,8.05
2023-02-19T09:22:07.670Z,8.18
2023-02-19T09:24:34.023Z,7.90
2023-02-19T09:27:00.375Z,7.58
2023-02-19T09:29:26.776Z,7.55
2023-02-19T09:31:53.204Z,7.90
2023-02-19T09:34:19.574Z,7.62
2023-02-19T09:36:45.941Z,8.20
2023-02-19T09:39:12.341Z,8.74
2023-02-19T09:41:38.730Z,7.13
2023-02-19T09:44:05.094Z,6.72
2023-02-19T09:46:31.686Z,5.59
2023-02-19T09:48:58.157Z,5.56
2023-02-19T09:51:24.501Z,4.66
2023-02-19T09:53:50.944Z,4.56
2023-02-19T09:56:17.299Z,4.95
2023-02-19T09:58:43.667Z,5.24
2023-02-19T10:01:10.457Z,5.16
2023-02-19T10:03:37.073Z,4.99
2023-02-19T10:06:03.425Z,4.75
2023-02-19T10:08:29.802Z,4.81
2023-02-19T10:10:56.164Z,4.69
2023-02-19T10:13:22.592Z,5.10
2023-02-19T10:15:49.010Z,4.92
2023-02-19T10:18:15.422Z,4.82
2023-02-19T10:20:41.786Z,5.57
2023-02-19T10:23:08.163Z,5.39
2023-02-19T10:25:36.385Z,4.96
2023-02-19T10:28:02.739Z,5.35
2023-02-19T10:30:29.138Z,5.56
2023-02-19T10:32:55.584Z,5.70
2023-02-19T10:35:21.945Z,5.29
2023-02-19T10:37:48.322Z,5.36
2023-02-19T10:40:14.723Z,6.51
2023-02-19T10:42:41.125Z,6.69
2023-02-19T10:45:07.495Z,6.84
2023-02-19T10:47:33.866Z,6.72
2023-02-19T10:50:01.504Z,6.43
2023-02-19T10:52:28.897Z,5.74
2023-02-19T10:54:55.244Z,5.01
2023-02-19T10:57:21.603Z,6.30
2023-02-19T10:59:47.977Z,5.93
2023-02-19T11:02:14.372Z,6.01
2023-02-19T11:04:40.804Z,5.90
2023-02-19T11:07:07.173Z,6.18
2023-02-19T11:09:33.549Z,6.06
2023-02-19T11:11:59.930Z,5.35
2023-02-19T11:14:26.388Z,5.31
2023-02-19T11:16:52.731Z,5.08
2023-02-19T11:19:19.093Z,5.91
2023-02-19T11:21:45.445Z,5.43
2023-02-19T11:24:11.821Z,5.00
2023-02-19T11:26:38.206Z,5.59
2023-02-19T11:29:04.605Z,5.92
2023-02-19T11:31:31.060Z,5.75
2023-02-19T11:33:57.507Z,5.75
2023-02-19T11:36:23.932Z,5.54
2023-02-19T11:38:50.320Z,5.45
2023-02-19T11:41:16.709Z,4.92
2023-02-19T11:43:43.083Z,4.85
2023-02-19T11:46:09.482Z,4.60
2023-02-19T11:48:35.847Z,5.13
2023-02-19T11:51:02.244Z,5.31
2023-02-19T11:53:28.718Z,5.16
2023-02-19T11:55:55.123Z,4.91
2023-02-19T11:58:21.517Z,4.98
2023-02-19T12:00:49.250Z,4.92
2023-02-19T12:03:15.631Z,5.09
2023-02-19T12:05:42.002Z,4.84
2023-02-19T12:08:08.448Z,4.80
2023-02-19T12:10:34.798Z,5.08
2023-02-19T12:13:01.163Z,4.96
2023-02-19T12:15:27.568Z,5.11
2023-02-19T12:17:53.920Z,5.02
2023-02-19T12:20:20.307Z,5.31
2023-02-19T12:22:46.673Z,5.38
2023-02-19T12:28:03.355Z,5.38
2023-02-19T12:30:29.817Z,5.18
2023-02-19T12:32:56.273Z,4.74
2023-02-19T12:35:22.637Z,4.59
2023-02-19T12:37:49.007Z,4.64
2023-02-19T12:40:15.361Z,4.79
2023-02-19T12:42:41.762Z,4.57
2023-02-19T12:45:08.430Z,4.54
2023-02-19T12:47:34.793Z,4.72
2023-02-19T12:50:01.190Z,4.53
2023-02-19T12:52:27.552Z,4.62
2023-02-19T12:54:55.825Z,4.27
2023-02-19T12:57:22.444Z,4.31
2023-02-19T12:59:48.832Z,4.72
2023-02-19T13:02:15.263Z,4.39
2023-02-19T13:04:41.675Z,4.95
2023-02-19T13:07:08.058Z,4.69
2023-02-19T13:09:34.473Z,4.48
2023-02-19T13:12:00.876Z,4.63
2023-02-19T13:14:27.241Z,4.66
2023-02-19T13:16:53.722Z,4.23
2023-02-19T13:19:20.165Z,3.66
2023-02-19T13:21:46.533Z,3.93
2023-02-19T13:24:12.958Z,4.17
2023-02-19T13:26:39.332Z,4.00
2023-02-19T13:29:05.698Z,3.44
2023-02-19T13:31:32.176Z,3.82
2023-02-19T13:33:58.616Z,3.85
2023-02-19T13:36:26.599Z,3.87
2023-02-19T13:38:53.024Z,3.33
2023-02-19T13:41:19.427Z,3.11
2023-02-19T13:43:45.789Z,3.08
2023-02-19T13:46:12.255Z,1.52
2023-02-19T13:48:38.692Z,1.58
2023-02-19T13:51:05.062Z,1.48
2023-02-19T13:53:31.446Z,1.50
2023-02-19T13:55:57.818Z,1.38
2023-02-19T13:58:24.185Z,1.68
2023-02-19T14:00:50.563Z,1.52
2023-02-19T14:03:16.936Z,1.52
2023-02-19T14:05:43.313Z,1.61
2023-02-19T14:08:09.694Z,1.61
2023-02-19T14:10:36.057Z,1.84
2023-02-19T14:13:02.423Z,1.95
2023-02-19T14:15:28.834Z,2.17
2023-02-19T14:17:55.225Z,2.09
2023-02-19T14:20:21.598Z,2.09
2023-02-19T14:22:47.941Z,2.50
2023-02-19T14:25:14.310Z,2.29
2023-02-19T14:27:40.685Z,2.32
2023-02-19T14:30:07.096Z,2.29
2023-02-19T14:32:33.587Z,2.63
2023-02-19T14:34:59.947Z,2.33
2023-02-19T14:37:26.311Z,3.03
2023-02-19T14:39:52.679Z,3.61
2023-02-19T14:42:19.072Z,3.53
2023-02-19T14:44:45.476Z,3.89
2023-02-19T14:47:11.830Z,3.67
2023-02-19T14:49:38.195Z,4.15
2023-02-19T14:52:04.571Z,3.80
2023-02-19T14:54:30.939Z,3.34
2023-02-19T14:56:57.462Z,3.41
2023-02-19T14:59:23.822Z,3.04
2023-02-19T15:01:50.230Z,3.03
2023-02-19T15:04:16.624Z,3.10
2023-02-19T15:06:42.974Z,3.16
2023-02-19T15:09:09.366Z,3.14
2023-02-19T15:11:35.747Z,3.26
2023-02-19T15:14:02.130Z,3.22
2023-02-19T15:16:28.747Z,4.61
2023-02-19T15:18:55.149Z,3.30
2023-02-19T15:21:21.510Z,3.22
2023-02-19T15:23:47.901Z,2.93
2023-02-19T15:26:14.287Z,2.52
2023-02-19T15:28:40.672Z,2.62
2023-02-19T15:31:07.037Z,2.72
2023-02-19T15:33:33.457Z,2.69
2023-02-19T15:35:59.841Z,2.78
2023-02-19T15:38:26.246Z,2.75
2023-02-19T15:40:52.653Z,2.75
2023-02-19T15:43:19.023Z,2.73
2023-02-19T15:45:45.390Z,2.01
2023-02-19T15:48:11.795Z,1.05
2023-02-19T15:50:38.168Z,0.81
2023-02-19T15:53:04.537Z,0.80
2023-02-19T15:55:30.926Z,0.87
2023-02-19T15:57:57.280Z,0.76
2023-02-19T16:00:23.664Z,0.80
2023-02-19T16:02:50.096Z,0.88
2023-02-19T16:05:16.478Z,0.90
2023-02-19T16:07:42.842Z,0.77
2023-02-19T16:10:09.238Z,0.83
2023-02-19T16:12:35.618Z,0.90
2023-02-19T16:15:01.959Z,0.99
2023-02-19T16:17:28.342Z,0.81
2023-02-19T16:19:54.723Z,0.95
2023-02-19T16:22:21.107Z,0.93
2023-02-19T16:24:47.467Z,0.87
2023-02-19T16:27:13.847Z,0.73
2023-02-19T16:29:40.232Z,0.82
2023-02-19T16:32:06.678Z,0.72
2023-02-19T16:34:33.275Z,0.81
2023-02-19T16:36:59.723Z,0.80
2023-02-19T16:39:26.081Z,0.80
2023-02-19T16:41:52.448Z,0.90
2023-02-19T16:44:18.890Z,0.81
2023-02-19T16:46:45.240Z,0.81
2023-02-19T16:49:13.104Z,0.93
2023-02-19T16:51:39.493Z,0.92
2023-02-19T16:54:05.866Z,0.95
2023-02-19T16:56:32.264Z,1.02
2023-02-19T16:58:58.622Z,1.03
2023-02-19T17:01:25.012Z,1.10
2023-02-19T17:03:51.447Z,1.13
2023-02-19T17:06:17.836Z,1.25
2023-02-19T17:08:44.191Z,8.12
2023-02-19T17:11:10.903Z,1.75
2023-02-19T17:13:37.440Z,1.14
2023-02-19T17:16:03.884Z,1.09
2023-02-19T17:18:30.319Z,1.07
2023-02-19T17:20:56.698Z,1.11
2023-02-19T17:23:24.488Z,1.03
2023-02-19T17:25:50.969Z,1.07
2023-02-19T17:28:17.361Z,0.97
2023-02-19T17:30:43.722Z,1.12
2023-02-19T17:33:10.112Z,1.07
2023-02-19T17:35:36.489Z,1.02
2023-02-19T17:38:02.867Z,1.23
2023-02-19T17:40:33.060Z,1.07
2023-02-19T17:43:00.026Z,1.47
2023-02-19T17:46:41.253Z,1.18
2023-02-19T17:49:07.610Z,1.18
2023-02-19T17:51:33.968Z,1.19
2023-02-19T17:54:00.369Z,1.35
2023-02-19T17:56:26.757Z,1.43
2023-02-19T17:58:53.160Z,1.21
2023-02-19T18:01:19.554Z,1.14
2023-02-19T18:03:46.007Z,1.17
2023-02-19T18:06:12.402Z,1.12
2023-02-19T18:08:38.773Z,1.39
2023-02-19T18:11:05.135Z,1.19
2023-02-19T18:13:31.509Z,1.59
2023-02-19T18:15:57.903Z,1.69
2023-02-19T18:18:24.283Z,1.52
2023-02-19T18:20:50.630Z,1.62
2023-02-19T18:23:17.025Z,1.68
2023-02-19T18:25:43.472Z,1.64
2023-02-19T18:28:09.861Z,1.67
2023-02-19T18:30:36.305Z,1.87
2023-02-19T18:33:02.741Z,1.87
2023-02-19T18:35:31.790Z,1.91
2023-02-19T18:37:59.085Z,2.03
2023-02-19T18:40:25.466Z,1.77
2023-02-19T18:42:51.877Z,1.87
2023-02-19T18:45:18.261Z,1.92
2023-02-19T18:47:44.646Z,1.68
2023-02-19T18:50:11.008Z,1.75
2023-02-19T18:52:37.413Z,1.72
2023-02-19T18:55:03.770Z,1.95
2023-02-19T18:57:30.126Z,1.68
2023-02-19T18:59:56.489Z,1.57
2023-02-19T19:02:22.845Z,1.63
2023-02-19T19:04:49.226Z,1.28
2023-02-19T19:07:15.588Z,1.29
2023-02-19T19:09:41.998Z,1.58
2023-02-19T19:12:08.401Z,1.29
2023-02-19T19:14:34.777Z,1.50
2023-02-19T19:17:01.173Z,1.53
2023-02-19T19:19:27.536Z,1.61
2023-02-19T19:21:53.949Z,1.82
2023-02-19T19:24:20.315Z,1.86
2023-02-19T19:26:46.680Z,2.08
2023-02-19T19:29:13.453Z,2.00
2023-02-19T19:31:39.888Z,2.40
2023-02-19T19:34:06.349Z,2.19
2023-02-19T19:36:32.729Z,2.43
2023-02-19T19:38:59.181Z,2.62
2023-02-19T19:41:25.625Z,2.44
2023-02-19T19:43:51.993Z,2.02
2023-02-19T19:46:18.402Z,2.38
2023-02-19T19:48:44.787Z,2.39
2023-02-19T19:51:11.456Z,2.33
2023-02-19T19:53:39.170Z,2.24
2023-02-19T19:56:05.558Z,2.20
2023-02-19T19:58:31.949Z,2.21
2023-02-19T20:00:58.344Z,2.15
2023-02-19T20:03:24.725Z,2.63
2023-02-19T20:05:51.112Z,2.12
2023-02-19T20:08:17.544Z,1.88
2023-02-19T20:10:45.402Z,2.60
2023-02-19T20:13:11.892Z,2.14
2023-02-19T20:15:40.085Z,1.75
2023-02-19T20:18:06.472Z,1.74
2023-02-19T20:20:32.837Z,1.56
2023-02-19T20:22:59.208Z,2.37
2023-02-19T20:25:25.660Z,1.62
2023-02-19T20:27:52.044Z,1.26
2023-02-19T20:30:18.451Z,1.37
2023-02-19T20:32:44.853Z,1.38
2023-02-19T20:35:11.220Z,1.42
2023-02-19T20:37:37.655Z,1.41
2023-02-19T20:40:04.019Z,1.47
2023-02-19T20:42:30.370Z,1.36
2023-02-19T20:44:56.792Z,1.53
2023-02-19T20:47:23.163Z,1.79
2023-02-19T20:49:49.560Z,1.64
2023-02-19T20:52:16.007Z,2.79
2023-02-19T20:54:42.400Z,4.83
2023-02-19T20:57:08.781Z,1.99
2023-02-19T20:59:35.222Z,3.60
2023-02-19T21:02:01.715Z,2.51
2023-02-19T21:04:28.170Z,1.49
2023-02-19T21:06:54.549Z,1.54
2023-02-19T21:09:20.916Z,1.53
2023-02-19T21:11:47.315Z,1.44
2023-02-19T21:14:13.669Z,1.37
2023-02-19T21:16:40.065Z,1.31
2023-02-19T21:19:06.415Z,1.51
2023-02-19T21:21:32.939Z,6.26
2023-02-19T21:23:59.331Z,1.66
2023-02-19T21:26:25.722Z,1.44
2023-02-19T21:28:52.152Z,1.45
2023-02-19T21:31:18.608Z,1.39
2023-02-19T21:33:45.028Z,1.41
2023-02-19T21:36:11.637Z,1.29
2023-02-19T21:38:38.293Z,1.52
2023-02-19T21:41:04.662Z,1.44
2023-02-19T21:43:31.052Z,1.28
2023-02-19T21:45:57.445Z,1.41
2023-02-19T21:48:23.905Z,1.31
2023-02-19T21:50:50.335Z,1.25
2023-02-19T21:53:16.693Z,1.62
2023-02-19T21:55:57.454Z,1.45
2023-02-19T21:58:24.449Z,1.49
2023-02-19T22:00:50.835Z,1.92
2023-02-19T22:03:17.213Z,1.84
2023-02-19T22:05:43.593Z,1.44
2023-02-19T22:08:09.957Z,1.34
2023-02-19T22:10:36.337Z,1.29
2023-02-19T22:13:02.721Z,1.55
2023-02-19T22:15:29.093Z,1.53
2023-02-19T22:17:55.506Z,1.52
2023-02-19T22:20:21.879Z,1.49
2023-02-19T22:22:48.264Z,1.47
2023-02-19T22:25:14.650Z,1.60
2023-02-19T22:27:41.041Z,4.60
2023-02-19T22:30:08.710Z,2.48
2023-02-19T22:32:35.228Z,1.79
2023-02-19T22:35:01.688Z,1.60
2023-02-19T22:37:28.090Z,1.66
2023-02-19T22:39:54.489Z,1.54
2023-02-19T22:42:20.862Z,1.44
2023-02-19T22:44:47.389Z,1.52
2023-02-19T22:47:13.780Z,1.42
2023-02-19T22:49:40.134Z,1.42
2023-02-19T22:52:06.629Z,1.25
2023-02-19T22:54:32.984Z,1.96
2023-02-19T22:56:59.358Z,1.55
2023-02-19T22:59:25.722Z,1.53
2023-02-19T23:01:52.119Z,1.44
2023-02-19T23:04:18.524Z,1.95
2023-02-19T23:06:45.531Z,2.09
2023-02-19T23:09:11.946Z,1.59
2023-02-19T23:11:38.360Z,1.50
2023-02-19T23:14:04.745Z,1.68
2023-02-19T23:16:31.120Z,1.50
2023-02-19T23:18:57.524Z,1.51
2023-02-19T23:21:23.909Z,1.61
2023-02-19T23:23:50.376Z,1.78
2023-02-19T23:26:16.783Z,1.69
2023-02-19T23:28:43.226Z,1.64
2023-02-19T23:31:09.782Z,1.89
2023-02-19T23:33:36.245Z,1.99
2023-02-19T23:36:02.620Z,1.93
2023-02-19T23:38:29.015Z,1.90
2023-02-19T23:40:55.392Z,2.05
2023-02-19T23:43:21.746Z,2.01
2023-02-19T23:45:48.275Z,2.18
2023-02-19T23:48:14.659Z,2.04
2023-02-19T23:50:41.113Z,1.81
2023-02-19T23:53:07.510Z,2.05
2023-02-19T23:55:33.877Z,1.92
2023-02-19T23:58:00.233Z,2.00
